sensor_id;sensor_type;location;lat;lon;timestamp;pressure;altitude;pressure_sealevel;temperature;humidity
70815;BME280;58428;49.478;10.986;2023-03-26T00:00:59;97830.19;;;8.14;100.00
70815;BME280;58428;49.478;10.986;2023-03-26T00:03:26;97829.88;;;8.15;100.00
70815;BME280;58428;49.478;10.986;2023-03-26T00:06:07;97822.75;;;8.19;100.00
70815;BME280;58428;49.478;10.986;2023-03-26T00:08:37;97826.81;;;8.25;100.00
70815;BME280;58428;49.478;10.986;2023-03-26T00:11:05;97835.88;;;8.21;100.00
70815;BME280;58428;49.478;10.986;2023-03-26T00:13:32;97835.06;;;8.20;100.00
70815;BME280;58428;49.478;10.986;2023-03-26T00:15:58;97843.97;;;8.21;100.00
70815;BME280;58428;49.478;10.986;2023-03-26T00:18:24;97836.84;;;8.16;100.00
70815;BME280;58428;49.478;10.986;2023-03-26T00:20:55;97838.75;;;8.16;100.00
70815;BME280;58428;49.478;10.986;2023-03-26T00:23:21;97840.47;;;8.20;100.00
70815;BME280;58428;49.478;10.986;2023-03-26T00:25:47;97841.44;;;8.16;100.00
70815;BME280;58428;49.478;10.986;2023-03-26T00:28:15;97838.28;;;8.14;100.00
70815;BME280;58428;49.478;10.986;2023-03-26T00:30:42;97846.66;;;8.21;100.00
70815;BME280;58428;49.478;10.986;2023-03-26T00:33:08;97835.88;;;8.21;100.00
70815;BME280;58428;49.478;10.986;2023-03-26T00:35:37;97847.72;;;8.28;100.00
70815;BME280;58428;49.478;10.986;2023-03-26T00:38:02;97844.06;;;8.33;100.00
70815;BME280;58428;49.478;10.986;2023-03-26T00:40:29;97841.69;;;8.31;100.00
70815;BME280;58428;49.478;10.986;2023-03-26T00:42:57;97847.88;;;8.32;100.00
70815;BME280;58428;49.478;10.986;2023-03-26T00:45:22;97835.44;;;8.19;100.00
70815;BME280;58428;49.478;10.986;2023-03-26T00:47:48;97833.97;;;8.21;100.00
70815;BME280;58428;49.478;10.986;2023-03-26T00:50:14;97849.16;;;8.26;100.00
70815;BME280;58428;49.478;10.986;2023-03-26T00:52:44;97841.38;;;8.33;100.00
70815;BME280;58428;49.478;10.986;2023-03-26T00:55:11;97836.13;;;8.36;100.00
70815;BME280;58428;49.478;10.986;2023-03-26T00:57:37;97830.06;;;8.39;100.00
70815;BME280;58428;49.478;10.986;2023-03-26T01:00:06;97828.78;;;8.45;100.00
70815;BME280;58428;49.478;10.986;2023-03-26T01:02:36;97823.66;;;8.52;100.00
70815;BME280;58428;49.478;10.986;2023-03-26T01:05:40;97830.44;;;8.58;100.00
70815;BME280;58428;49.478;10.986;2023-03-26T01:08:16;97827.47;;;8.51;100.00
70815;BME280;58428;49.478;10.986;2023-03-26T01:10:45;97829.53;;;8.54;100.00
70815;BME280;58428;49.478;10.986;2023-03-26T01:13:22;97829.06;;;8.52;100.00
70815;BME280;58428;49.478;10.986;2023-03-26T01:15:50;97827.59;;;8.54;100.00
70815;BME280;58428;49.478;10.986;2023-03-26T01:18:21;97825.38;;;8.56;100.00
70815;BME280;58428;49.478;10.986;2023-03-26T01:20:53;97829.91;;;8.64;100.00
70815;BME280;58428;49.478;10.986;2023-03-26T01:23:40;97826.22;;;8.69;100.00
70815;BME280;58428;49.478;10.986;2023-03-26T01:29:02;97815.97;;;8.62;100.00
70815;BME280;58428;49.478;10.986;2023-03-26T01:35:26;97826.94;;;8.57;100.00
70815;BME280;58428;49.478;10.986;2023-03-26T01:43:27;97812.91;;;8.43;100.00
70815;BME280;58428;49.478;10.986;2023-03-26T01:45:59;97814.50;;;8.44;100.00
70815;BME280;58428;49.478;10.986;2023-03-26T01:48:33;97818.66;;;8.42;100.00
70815;BME280;58428;49.478;10.986;2023-03-26T01:51:01;97820.75;;;8.37;100.00
70815;BME280;58428;49.478;10.986;2023-03-26T01:53:27;97808.72;;;8.34;100.00
70815;BME280;58428;49.478;10.986;2023-03-26T01:55:54;97810.19;;;8.23;100.00
70815;BME280;58428;49.478;10.986;2023-03-26T01:58:34;97809.59;;;8.18;100.00
70815;BME280;58428;49.478;10.986;2023-03-26T02:07:06;97803.13;;;8.10;100.00
70815;BME280;58428;49.478;10.986;2023-03-26T02:09:38;97796.16;;;8.09;100.00
70815;BME280;58428;49.478;10.986;2023-03-26T02:12:07;97794.41;;;8.13;100.00
70815;BME280;58428;49.478;10.986;2023-03-26T02:14:34;97789.66;;;8.02;100.00
70815;BME280;58428;49.478;10.986;2023-03-26T02:17:01;97786.78;;;8.07;100.00
70815;BME280;58428;49.478;10.986;2023-03-26T02:19:27;97777.13;;;8.06;100.00
70815;BME280;58428;49.478;10.986;2023-03-26T02:21:52;97770.81;;;8.02;100.00
70815;BME280;58428;49.478;10.986;2023-03-26T02:24:24;97766.97;;;8.03;100.00
70815;BME280;58428;49.478;10.986;2023-03-26T02:26:55;97768.13;;;8.02;100.00
70815;BME280;58428;49.478;10.986;2023-03-26T02:29:22;97765.09;;;8.04;100.00
70815;BME280;58428;49.478;10.986;2023-03-26T02:31:48;97762.72;;;8.02;100.00
70815;BME280;58428;49.478;10.986;2023-03-26T02:34:15;97766.88;;;8.00;100.00
70815;BME280;58428;49.478;10.986;2023-03-26T02:36:40;97758.44;;;8.01;100.00
70815;BME280;58428;49.478;10.986;2023-03-26T02:39:08;97752.88;;;8.06;100.00
70815;BME280;58428;49.478;10.986;2023-03-26T02:41:35;97751.94;;;8.10;100.00
70815;BME280;58428;49.478;10.986;2023-03-26T02:44:00;97757.03;;;8.04;100.00
70815;BME280;58428;49.478;10.986;2023-03-26T02:46:26;97750.09;;;7.94;100.00
70815;BME280;58428;49.478;10.986;2023-03-26T02:48:51;97751.41;;;7.88;100.00
70815;BME280;58428;49.478;10.986;2023-03-26T02:51:17;97749.53;;;7.80;100.00
70815;BME280;58428;49.478;10.986;2023-03-26T02:53:44;97747.00;;;7.75;100.00
70815;BME280;58428;49.478;10.986;2023-03-26T02:56:11;97737.06;;;7.68;100.00
70815;BME280;58428;49.478;10.986;2023-03-26T02:58:37;97738.50;;;7.65;100.00
70815;BME280;58428;49.478;10.986;2023-03-26T03:01:03;97730.28;;;7.62;100.00
70815;BME280;58428;49.478;10.986;2023-03-26T03:03:30;97734.91;;;7.53;100.00
70815;BME280;58428;49.478;10.986;2023-03-26T03:05:55;97737.47;;;7.49;100.00
70815;BME280;58428;49.478;10.986;2023-03-26T03:08:24;97735.72;;;7.45;100.00
70815;BME280;58428;49.478;10.986;2023-03-26T03:10:58;97733.69;;;7.42;100.00
70815;BME280;58428;49.478;10.986;2023-03-26T03:13:25;97731.00;;;7.42;100.00
70815;BME280;58428;49.478;10.986;2023-03-26T03:15:50;97728.16;;;7.38;100.00
70815;BME280;58428;49.478;10.986;2023-03-26T03:18:16;97728.97;;;7.31;100.00
70815;BME280;58428;49.478;10.986;2023-03-26T03:20:42;97722.16;;;7.33;100.00
70815;BME280;58428;49.478;10.986;2023-03-26T03:23:09;97726.28;;;7.31;100.00
70815;BME280;58428;49.478;10.986;2023-03-26T03:25:35;97713.00;;;7.26;100.00
70815;BME280;58428;49.478;10.986;2023-03-26T03:28:00;97717.44;;;7.22;100.00
70815;BME280;58428;49.478;10.986;2023-03-26T03:30:26;97716.66;;;7.21;100.00
70815;BME280;58428;49.478;10.986;2023-03-26T03:32:51;97711.28;;;7.21;100.00
70815;BME280;58428;49.478;10.986;2023-03-26T03:35:18;97708.91;;;7.20;100.00
70815;BME280;58428;49.478;10.986;2023-03-26T03:37:43;97712.06;;;7.22;100.00
70815;BME280;58428;49.478;10.986;2023-03-26T03:40:11;97707.28;;;7.27;100.00
70815;BME280;58428;49.478;10.986;2023-03-26T03:42:37;97712.50;;;7.32;100.00
70815;BME280;58428;49.478;10.986;2023-03-26T03:45:05;97697.31;;;7.36;100.00
70815;BME280;58428;49.478;10.986;2023-03-26T03:47:34;97699.03;;;7.40;100.00
70815;BME280;58428;49.478;10.986;2023-03-26T03:50:06;97701.41;;;7.42;100.00
70815;BME280;58428;49.478;10.986;2023-03-26T03:52:34;97692.19;;;7.43;100.00
70815;BME280;58428;49.478;10.986;2023-03-26T03:55:00;97699.50;;;7.42;100.00
70815;BME280;58428;49.478;10.986;2023-03-26T03:57:28;97696.34;;;7.40;100.00
70815;BME280;58428;49.478;10.986;2023-03-26T03:59:53;97700.00;;;7.36;100.00
70815;BME280;58428;49.478;10.986;2023-03-26T04:02:23;97696.84;;;7.34;100.00
70815;BME280;58428;49.478;10.986;2023-03-26T04:05:00;97699.22;;;7.27;100.00
70815;BME280;58428;49.478;10.986;2023-03-26T04:07:28;97697.19;;;7.24;100.00
70815;BME280;58428;49.478;10.986;2023-03-26T04:10:12;97701.75;;;7.24;100.00
70815;BME280;58428;49.478;10.986;2023-03-26T04:12:41;97698.81;;;7.08;100.00
70815;BME280;58428;49.478;10.986;2023-03-26T04:15:08;97683.94;;;7.02;100.00
70815;BME280;58428;49.478;10.986;2023-03-26T04:17:33;97690.91;;;7.03;100.00
70815;BME280;58428;49.478;10.986;2023-03-26T04:20:07;97685.69;;;6.98;100.00
70815;BME280;58428;49.478;10.986;2023-03-26T04:22:33;97690.44;;;7.01;100.00
70815;BME280;58428;49.478;10.986;2023-03-26T04:25:00;97689.78;;;7.04;100.00
70815;BME280;58428;49.478;10.986;2023-03-26T04:27:29;97685.38;;;7.00;100.00
70815;BME280;58428;49.478;10.986;2023-03-26T04:29:57;97674.94;;;6.98;100.00
70815;BME280;58428;49.478;10.986;2023-03-26T04:32:26;97680.31;;;6.98;100.00
70815;BME280;58428;49.478;10.986;2023-03-26T04:35:04;97667.81;;;7.02;100.00
70815;BME280;58428;49.478;10.986;2023-03-26T04:37:34;97665.59;;;7.04;100.00
70815;BME280;58428;49.478;10.986;2023-03-26T04:40:02;97661.19;;;7.00;100.00
70815;BME280;58428;49.478;10.986;2023-03-26T04:42:35;97656.94;;;6.99;100.00
70815;BME280;58428;49.478;10.986;2023-03-26T04:45:03;97654.72;;;7.01;100.00
70815;BME280;58428;49.478;10.986;2023-03-26T04:47:30;97650.88;;;7.02;100.00
70815;BME280;58428;49.478;10.986;2023-03-26T04:49:55;97650.72;;;6.98;100.00
70815;BME280;58428;49.478;10.986;2023-03-26T04:52:21;97642.69;;;6.90;100.00
70815;BME280;58428;49.478;10.986;2023-03-26T04:54:47;97642.06;;;6.93;100.00
70815;BME280;58428;49.478;10.986;2023-03-26T05:00:15;97645.03;;;7.00;100.00
70815;BME280;58428;49.478;10.986;2023-03-26T05:02:42;97635.69;;;7.06;100.00
70815;BME280;58428;49.478;10.986;2023-03-26T05:05:08;97637.56;;;7.14;100.00
70815;BME280;58428;49.478;10.986;2023-03-26T05:07:34;97632.34;;;7.17;100.00
70815;BME280;58428;49.478;10.986;2023-03-26T05:10:00;97620.28;;;7.23;100.00
70815;BME280;58428;49.478;10.986;2023-03-26T05:12:28;97621.88;;;7.24;100.00
70815;BME280;58428;49.478;10.986;2023-03-26T05:14:53;97620.88;;;7.29;100.00
70815;BME280;58428;49.478;10.986;2023-03-26T05:17:19;97613.44;;;7.34;100.00
70815;BME280;58428;49.478;10.986;2023-03-26T05:19:47;97608.66;;;7.39;100.00
70815;BME280;58428;49.478;10.986;2023-03-26T05:22:13;97612.00;;;7.36;100.00
70815;BME280;58428;49.478;10.986;2023-03-26T05:24:38;97608.19;;;7.37;100.00
70815;BME280;58428;49.478;10.986;2023-03-26T05:27:04;97600.59;;;7.39;100.00
70815;BME280;58428;49.478;10.986;2023-03-26T05:29:31;97602.53;;;7.31;100.00
70815;BME280;58428;49.478;10.986;2023-03-26T05:31:56;97597.28;;;7.34;100.00
70815;BME280;58428;49.478;10.986;2023-03-26T05:34:23;97592.84;;;7.38;100.00
70815;BME280;58428;49.478;10.986;2023-03-26T05:36:50;97577.47;;;7.38;100.00
70815;BME280;58428;49.478;10.986;2023-03-26T05:39:16;97582.72;;;7.35;100.00
70815;BME280;58428;49.478;10.986;2023-03-26T05:41:41;97578.25;;;7.39;100.00
70815;BME280;58428;49.478;10.986;2023-03-26T05:44:06;97574.72;;;7.47;100.00
70815;BME280;58428;49.478;10.986;2023-03-26T05:46:32;97569.81;;;7.49;100.00
70815;BME280;58428;49.478;10.986;2023-03-26T05:48:57;97560.31;;;7.51;100.00
70815;BME280;58428;49.478;10.986;2023-03-26T05:51:24;97562.19;;;7.51;100.00
70815;BME280;58428;49.478;10.986;2023-03-26T05:53:50;97562.00;;;7.56;100.00
70815;BME280;58428;49.478;10.986;2023-03-26T05:56:17;97555.03;;;7.55;100.00
70815;BME280;58428;49.478;10.986;2023-03-26T05:58:42;97549.00;;;7.58;100.00
70815;BME280;58428;49.478;10.986;2023-03-26T06:01:10;97536.94;;;7.64;100.00
70815;BME280;58428;49.478;10.986;2023-03-26T06:03:42;97532.47;;;7.68;100.00
70815;BME280;58428;49.478;10.986;2023-03-26T06:06:11;97526.56;;;7.74;100.00
70815;BME280;58428;49.478;10.986;2023-03-26T06:08:43;97520.66;;;7.80;100.00
70815;BME280;58428;49.478;10.986;2023-03-26T06:11:11;97524.41;;;7.88;100.00
70815;BME280;58428;49.478;10.986;2023-03-26T06:13:37;97517.34;;;7.95;100.00
70815;BME280;58428;49.478;10.986;2023-03-26T06:16:06;97516.03;;;8.01;100.00
70815;BME280;58428;49.478;10.986;2023-03-26T06:18:31;97512.53;;;8.09;100.00
70815;BME280;58428;49.478;10.986;2023-03-26T06:20:58;97505.34;;;8.13;100.00
70815;BME280;58428;49.478;10.986;2023-03-26T06:23:24;97507.81;;;8.18;100.00
70815;BME280;58428;49.478;10.986;2023-03-26T06:25:49;97505.72;;;8.23;100.00
70815;BME280;58428;49.478;10.986;2023-03-26T06:28:15;97500.78;;;8.25;100.00
70815;BME280;58428;49.478;10.986;2023-03-26T06:30:41;97497.75;;;8.27;100.00
70815;BME280;58428;49.478;10.986;2023-03-26T06:33:07;97503.25;;;8.30;100.00
70815;BME280;58428;49.478;10.986;2023-03-26T06:35:34;97509.91;;;8.33;100.00
70815;BME280;58428;49.478;10.986;2023-03-26T06:38:01;97506.31;;;8.41;100.00
70815;BME280;58428;49.478;10.986;2023-03-26T06:40:28;97501.50;;;8.34;100.00
70815;BME280;58428;49.478;10.986;2023-03-26T06:42:53;97500.16;;;8.40;100.00
70815;BME280;58428;49.478;10.986;2023-03-26T06:45:20;97503.19;;;8.39;100.00
70815;BME280;58428;49.478;10.986;2023-03-26T06:47:46;97505.31;;;8.45;100.00
70815;BME280;58428;49.478;10.986;2023-03-26T06:50:11;97501.09;;;8.56;100.00
70815;BME280;58428;49.478;10.986;2023-03-26T06:52:36;97482.69;;;8.70;100.00
70815;BME280;58428;49.478;10.986;2023-03-26T06:55:04;97488.28;;;8.77;100.00
70815;BME280;58428;49.478;10.986;2023-03-26T06:57:33;97483.69;;;8.77;100.00
70815;BME280;58428;49.478;10.986;2023-03-26T06:59:58;97478.97;;;8.86;100.00
70815;BME280;58428;49.478;10.986;2023-03-26T07:02:24;97477.41;;;8.97;100.00
70815;BME280;58428;49.478;10.986;2023-03-26T07:04:49;97478.19;;;8.97;100.00
70815;BME280;58428;49.478;10.986;2023-03-26T07:07:15;97484.25;;;9.06;100.00
70815;BME280;58428;49.478;10.986;2023-03-26T07:09:42;97485.81;;;9.07;100.00
70815;BME280;58428;49.478;10.986;2023-03-26T07:12:08;97487.75;;;9.07;100.00
70815;BME280;58428;49.478;10.986;2023-03-26T07:14:33;97492.00;;;9.08;100.00
70815;BME280;58428;49.478;10.986;2023-03-26T07:17:02;97483.25;;;9.11;100.00
70815;BME280;58428;49.478;10.986;2023-03-26T07:19:27;97492.53;;;9.25;100.00
70815;BME280;58428;49.478;10.986;2023-03-26T07:21:53;97477.72;;;9.19;100.00
70815;BME280;58428;49.478;10.986;2023-03-26T07:24:19;97477.81;;;9.22;100.00
70815;BME280;58428;49.478;10.986;2023-03-26T07:29:34;97475.13;;;9.22;100.00
70815;BME280;58428;49.478;10.986;2023-03-26T07:32:15;97469.28;;;9.20;100.00
70815;BME280;58428;49.478;10.986;2023-03-26T07:34:52;97458.03;;;9.30;100.00
70815;BME280;58428;49.478;10.986;2023-03-26T07:45:48;97434.09;;;9.68;100.00
70815;BME280;58428;49.478;10.986;2023-03-26T07:48:18;97441.59;;;9.74;100.00
70815;BME280;58428;49.478;10.986;2023-03-26T07:50:47;97424.28;;;9.63;100.00
70815;BME280;58428;49.478;10.986;2023-03-26T07:53:13;97422.13;;;9.69;100.00
70815;BME280;58428;49.478;10.986;2023-03-26T07:55:51;97414.03;;;9.69;100.00
70815;BME280;58428;49.478;10.986;2023-03-26T08:03:56;97398.97;;;9.68;100.00
70815;BME280;58428;49.478;10.986;2023-03-26T08:06:33;97407.97;;;9.72;100.00
70815;BME280;58428;49.478;10.986;2023-03-26T08:09:27;97396.91;;;9.77;100.00
70815;BME280;58428;49.478;10.986;2023-03-26T08:12:34;97392.38;;;9.81;100.00
70815;BME280;58428;49.478;10.986;2023-03-26T08:15:22;97395.41;;;9.91;100.00
70815;BME280;58428;49.478;10.986;2023-03-26T08:18:24;97394.25;;;9.92;100.00
70815;BME280;58428;49.478;10.986;2023-03-26T08:20:58;97399.09;;;9.87;100.00
70815;BME280;58428;49.478;10.986;2023-03-26T08:29:09;97392.31;;;9.65;100.00
70815;BME280;58428;49.478;10.986;2023-03-26T08:31:41;97389.69;;;9.53;100.00
70815;BME280;58428;49.478;10.986;2023-03-26T08:34:11;97386.81;;;9.47;100.00
70815;BME280;58428;49.478;10.986;2023-03-26T08:36:37;97386.38;;;9.33;100.00
70815;BME280;58428;49.478;10.986;2023-03-26T08:39:05;97374.69;;;9.29;100.00
70815;BME280;58428;49.478;10.986;2023-03-26T08:44:33;97364.47;;;9.22;100.00
70815;BME280;58428;49.478;10.986;2023-03-26T09:04:14;97339.09;;;9.51;100.00
70815;BME280;58428;49.478;10.986;2023-03-26T09:10:01;97320.13;;;9.35;100.00
70815;BME280;58428;49.478;10.986;2023-03-26T09:18:57;97332.16;;;9.38;100.00
70815;BME280;58428;49.478;10.986;2023-03-26T09:24:25;97329.13;;;9.39;100.00
70815;BME280;58428;49.478;10.986;2023-03-26T09:30:44;97317.44;;;9.35;100.00
70815;BME280;58428;49.478;10.986;2023-03-26T09:33:27;97314.84;;;9.12;100.00
70815;BME280;58428;49.478;10.986;2023-03-26T09:36:12;97320.75;;;9.17;100.00
70815;BME280;58428;49.478;10.986;2023-03-26T09:38:52;97317.28;;;9.17;100.00
70815;BME280;58428;49.478;10.986;2023-03-26T09:44:49;97318.75;;;9.14;100.00
70815;BME280;58428;49.478;10.986;2023-03-26T09:56:07;97320.91;;;9.09;100.00
70815;BME280;58428;49.478;10.986;2023-03-26T10:10:06;97300.75;;;9.18;100.00
70815;BME280;58428;49.478;10.986;2023-03-26T10:12:45;97296.41;;;9.29;100.00
70815;BME280;58428;49.478;10.986;2023-03-26T10:18:19;97301.78;;;9.41;100.00
70815;BME280;58428;49.478;10.986;2023-03-26T10:21:25;97290.56;;;9.54;100.00
70815;BME280;58428;49.478;10.986;2023-03-26T10:32:16;97302.63;;;9.29;100.00
70815;BME280;58428;49.478;10.986;2023-03-26T10:34:53;97286.16;;;9.34;100.00
70815;BME280;58428;49.478;10.986;2023-03-26T10:43:15;97278.81;;;9.47;100.00
70815;BME280;58428;49.478;10.986;2023-03-26T10:48:36;97273.31;;;9.43;100.00
70815;BME280;58428;49.478;10.986;2023-03-26T10:54:01;97266.50;;;9.07;100.00
70815;BME280;58428;49.478;10.986;2023-03-26T10:56:35;97257.53;;;9.03;100.00
70815;BME280;58428;49.478;10.986;2023-03-26T10:59:10;97259.00;;;9.00;100.00
70815;BME280;58428;49.478;10.986;2023-03-26T11:02:05;97258.34;;;9.18;100.00
70815;BME280;58428;49.478;10.986;2023-03-26T11:07:51;97253.72;;;9.61;100.00
70815;BME280;58428;49.478;10.986;2023-03-26T11:10:43;97258.25;;;9.57;100.00
70815;BME280;58428;49.478;10.986;2023-03-26T11:16:01;97246.03;;;9.48;100.00
70815;BME280;58428;49.478;10.986;2023-03-26T11:21:15;97234.28;;;9.56;100.00
70815;BME280;58428;49.478;10.986;2023-03-26T11:26:45;97220.19;;;9.47;100.00
70815;BME280;58428;49.478;10.986;2023-03-26T11:32:28;97214.97;;;9.85;100.00
70815;BME280;58428;49.478;10.986;2023-03-26T11:35:35;97194.59;;;9.87;100.00
70815;BME280;58428;49.478;10.986;2023-03-26T11:40:42;97197.88;;;10.11;100.00
70815;BME280;58428;49.478;10.986;2023-03-26T11:43:12;97193.69;;;10.14;100.00
70815;BME280;58428;49.478;10.986;2023-03-26T11:45:44;97187.03;;;10.27;100.00
70815;BME280;58428;49.478;10.986;2023-03-26T11:48:17;97201.63;;;10.22;100.00
70815;BME280;58428;49.478;10.986;2023-03-26T11:50:48;97196.78;;;10.31;100.00
70815;BME280;58428;49.478;10.986;2023-03-26T11:53:17;97200.88;;;10.40;100.00
70815;BME280;58428;49.478;10.986;2023-03-26T11:59:11;97199.09;;;10.14;100.00
70815;BME280;58428;49.478;10.986;2023-03-26T12:05:25;97190.94;;;10.10;100.00
70815;BME280;58428;49.478;10.986;2023-03-26T12:08:01;97189.44;;;10.13;100.00
70815;BME280;58428;49.478;10.986;2023-03-26T12:10:34;97192.56;;;10.15;100.00
70815;BME280;58428;49.478;10.986;2023-03-26T12:13:27;97190.53;;;10.27;100.00
70815;BME280;58428;49.478;10.986;2023-03-26T12:16:15;97186.69;;;10.28;100.00
70815;BME280;58428;49.478;10.986;2023-03-26T12:18:43;97168.50;;;10.44;100.00
70815;BME280;58428;49.478;10.986;2023-03-26T12:21:13;97163.25;;;10.69;100.00
70815;BME280;58428;49.478;10.986;2023-03-26T12:24:25;97154.22;;;11.22;100.00
70815;BME280;58428;49.478;10.986;2023-03-26T12:26:57;97147.75;;;11.71;100.00
70815;BME280;58428;49.478;10.986;2023-03-26T12:29:27;97134.22;;;11.96;100.00
70815;BME280;58428;49.478;10.986;2023-03-26T12:32:04;97132.56;;;11.88;100.00
70815;BME280;58428;49.478;10.986;2023-03-26T12:34:36;97119.09;;;11.95;100.00
70815;BME280;58428;49.478;10.986;2023-03-26T12:37:05;97120.91;;;11.88;100.00
70815;BME280;58428;49.478;10.986;2023-03-26T12:39:43;97103.59;;;11.92;100.00
70815;BME280;58428;49.478;10.986;2023-03-26T12:42:30;97104.66;;;11.88;100.00
70815;BME280;58428;49.478;10.986;2023-03-26T12:44:57;97098.56;;;11.69;100.00
70815;BME280;58428;49.478;10.986;2023-03-26T12:47:34;97102.06;;;11.69;100.00
70815;BME280;58428;49.478;10.986;2023-03-26T12:50:14;97099.94;;;11.81;100.00
70815;BME280;58428;49.478;10.986;2023-03-26T12:59:01;97094.03;;;11.76;100.00
70815;BME280;58428;49.478;10.986;2023-03-26T13:01:50;97081.31;;;11.80;100.00
70815;BME280;58428;49.478;10.986;2023-03-26T13:13:57;97072.06;;;12.39;100.00
70815;BME280;58428;49.478;10.986;2023-03-26T13:27:48;97067.16;;;12.51;100.00
70815;BME280;58428;49.478;10.986;2023-03-26T13:33:41;97040.59;;;13.00;100.00
70815;BME280;58428;49.478;10.986;2023-03-26T13:41:59;97027.94;;;13.14;100.00
70815;BME280;58428;49.478;10.986;2023-03-26T13:44:50;97030.41;;;13.33;100.00
70815;BME280;58428;49.478;10.986;2023-03-26T13:47:26;97011.19;;;13.59;100.00
70815;BME280;58428;49.478;10.986;2023-03-26T13:49:59;97013.50;;;13.57;100.00
70815;BME280;58428;49.478;10.986;2023-03-26T13:52:42;97020.84;;;13.53;100.00
70815;BME280;58428;49.478;10.986;2023-03-26T13:55:39;97013.06;;;13.48;100.00
70815;BME280;58428;49.478;10.986;2023-03-26T14:06:08;97031.09;;;12.80;100.00
70815;BME280;58428;49.478;10.986;2023-03-26T14:08:42;97021.38;;;12.79;100.00
70815;BME280;58428;49.478;10.986;2023-03-26T14:11:16;97044.91;;;12.68;100.00
70815;BME280;58428;49.478;10.986;2023-03-26T14:13:52;97045.50;;;12.55;100.00
70815;BME280;58428;49.478;10.986;2023-03-26T14:16:35;97031.25;;;12.29;100.00
70815;BME280;58428;49.478;10.986;2023-03-26T14:20:08;97030.34;;;12.18;100.00
70815;BME280;58428;49.478;10.986;2023-03-26T14:22:31;97007.78;;;12.43;100.00
70815;BME280;58428;49.478;10.986;2023-03-26T14:31:23;96990.44;;;12.87;100.00
70815;BME280;58428;49.478;10.986;2023-03-26T14:34:15;96991.59;;;12.86;100.00
70815;BME280;58428;49.478;10.986;2023-03-26T14:37:22;96979.56;;;12.84;100.00
70815;BME280;58428;49.478;10.986;2023-03-26T14:42:33;96973.16;;;12.69;100.00
70815;BME280;58428;49.478;10.986;2023-03-26T14:54:06;96966.34;;;12.46;100.00
70815;BME280;58428;49.478;10.986;2023-03-26T15:17:28;96936.53;;;12.86;100.00
70815;BME280;58428;49.478;10.986;2023-03-26T15:20:43;96933.00;;;12.82;100.00
70815;BME280;58428;49.478;10.986;2023-03-26T15:31:54;96930.56;;;13.20;100.00
70815;BME280;58428;49.478;10.986;2023-03-26T15:40:19;96935.00;;;13.45;100.00
70815;BME280;58428;49.478;10.986;2023-03-26T15:43:14;96936.50;;;13.32;100.00
70815;BME280;58428;49.478;10.986;2023-03-26T15:49:05;96936.00;;;13.20;100.00
70815;BME280;58428;49.478;10.986;2023-03-26T15:51:59;96930.13;;;13.07;100.00
70815;BME280;58428;49.478;10.986;2023-03-26T15:54:51;96931.25;;;13.03;100.00
70815;BME280;58428;49.478;10.986;2023-03-26T15:57:50;96927.72;;;13.02;100.00
70815;BME280;58428;49.478;10.986;2023-03-26T16:00:28;96931.56;;;12.94;100.00
70815;BME280;58428;49.478;10.986;2023-03-26T16:11:44;96927.75;;;12.63;100.00
70815;BME280;58428;49.478;10.986;2023-03-26T16:14:22;96931.13;;;12.49;100.00
70815;BME280;58428;49.478;10.986;2023-03-26T16:16:56;96935.69;;;12.39;100.00
70815;BME280;58428;49.478;10.986;2023-03-26T16:22:06;96938.94;;;12.18;100.00
70815;BME280;58428;49.478;10.986;2023-03-26T16:24:38;96938.03;;;12.08;100.00
70815;BME280;58428;49.478;10.986;2023-03-26T16:27:29;96938.38;;;12.03;100.00
70815;BME280;58428;49.478;10.986;2023-03-26T16:30:24;96939.44;;;11.95;100.00
70815;BME280;58428;49.478;10.986;2023-03-26T16:33:03;96938.25;;;11.92;100.00
70815;BME280;58428;49.478;10.986;2023-03-26T16:35:39;96934.69;;;11.85;100.00
70815;BME280;58428;49.478;10.986;2023-03-26T16:38:16;96941.53;;;11.76;100.00
70815;BME280;58428;49.478;10.986;2023-03-26T16:49:13;96949.88;;;11.64;100.00
70815;BME280;58428;49.478;10.986;2023-03-26T16:52:22;96947.91;;;11.61;100.00
70815;BME280;58428;49.478;10.986;2023-03-26T16:57:52;96949.38;;;11.55;100.00
70815;BME280;58428;49.478;10.986;2023-03-26T17:03:42;96945.81;;;11.51;100.00
70815;BME280;58428;49.478;10.986;2023-03-26T17:09:16;96942.59;;;11.42;100.00
70815;BME280;58428;49.478;10.986;2023-03-26T17:17:54;96962.28;;;11.39;100.00
70815;BME280;58428;49.478;10.986;2023-03-26T17:20:31;96971.09;;;11.36;100.00
70815;BME280;58428;49.478;10.986;2023-03-26T17:28:41;96976.72;;;11.21;100.00
70815;BME280;58428;49.478;10.986;2023-03-26T17:31:42;96986.69;;;11.17;100.00
70815;BME280;58428;49.478;10.986;2023-03-26T17:37:50;96980.13;;;11.18;100.00
70815;BME280;58428;49.478;10.986;2023-03-26T17:43:31;96989.84;;;11.22;100.00
70815;BME280;58428;49.478;10.986;2023-03-26T17:51:46;97011.47;;;11.19;100.00
70815;BME280;58428;49.478;10.986;2023-03-26T17:56:46;97009.63;;;11.01;100.00
70815;BME280;58428;49.478;10.986;2023-03-26T17:59:24;97016.53;;;10.98;100.00
70815;BME280;58428;49.478;10.986;2023-03-26T18:01:54;97018.75;;;10.93;100.00
70815;BME280;58428;49.478;10.986;2023-03-26T18:04:32;97031.28;;;10.78;100.00
70815;BME280;58428;49.478;10.986;2023-03-26T18:07:51;97034.31;;;10.77;100.00
70815;BME280;58428;49.478;10.986;2023-03-26T18:11:01;97044.38;;;10.76;100.00
70815;BME280;58428;49.478;10.986;2023-03-26T18:13:56;97038.75;;;10.66;100.00
70815;BME280;58428;49.478;10.986;2023-03-26T18:16:36;97048.38;;;10.64;100.00
70815;BME280;58428;49.478;10.986;2023-03-26T18:19:11;97047.09;;;10.58;100.00
70815;BME280;58428;49.478;10.986;2023-03-26T18:21:51;97055.59;;;10.37;100.00
70815;BME280;58428;49.478;10.986;2023-03-26T18:24:39;97056.72;;;10.18;100.00